Terminal Aerodrome Forecast
Issued by NWS

Home | Current Version | Previous Version | Text Only | Print | Product List | Glossary On
Versions: 1 2 3 4 5 6 7 8 9 10 11 12 13 14 15 16 17 18 19 20 21 22 23 24 25
000
FTUS43 KBIS 280500
TAFMOT
TAF
KMOT 280528Z 2806/2906 23003KT P6SM SCT035
     FM280730 24003KT P6SM BKN040 BKN080
     FM281500 32004KT P6SM BKN040
     FM282100 33005KT P6SM SCT040 SCT100
     FM290200 06003KT P6SM SKC=

USA.gov is the U.S. government's official web portal to all federal, state and local government web resources and services.